sensor_id;sensor_type;location;lat;lon;timestamp;temperature;humidity
4056;DHT22;2043;52.184;8.690;2023-05-10T00:00:20;15.20;99.90
4056;DHT22;2043;52.184;8.690;2023-05-10T00:02:49;15.30;99.90
4056;DHT22;2043;52.184;8.690;2023-05-10T00:05:16;15.30;99.90
4056;DHT22;2043;52.184;8.690;2023-05-10T00:07:43;15.30;99.90
4056;DHT22;2043;52.184;8.690;2023-05-10T00:10:13;15.30;99.90
4056;DHT22;2043;52.184;8.690;2023-05-10T00:12:40;15.30;99.90
4056;DHT22;2043;52.184;8.690;2023-05-10T00:15:07;15.30;99.90
4056;DHT22;2043;52.184;8.690;2023-05-10T00:17:34;15.30;99.90
4056;DHT22;2043;52.184;8.690;2023-05-10T00:20:01;15.30;99.90
4056;DHT22;2043;52.184;8.690;2023-05-10T00:22:28;15.20;99.90
4056;DHT22;2043;52.184;8.690;2023-05-10T00:24:55;15.10;99.90
4056;DHT22;2043;52.184;8.690;2023-05-10T00:27:21;15.00;99.90
4056;DHT22;2043;52.184;8.690;2023-05-10T00:29:48;15.00;99.90
4056;DHT22;2043;52.184;8.690;2023-05-10T00:32:15;15.00;99.90
4056;DHT22;2043;52.184;8.690;2023-05-10T00:34:43;14.90;99.90
4056;DHT22;2043;52.184;8.690;2023-05-10T00:37:09;14.90;99.90
4056;DHT22;2043;52.184;8.690;2023-05-10T00:39:36;14.90;99.90
4056;DHT22;2043;52.184;8.690;2023-05-10T00:42:03;14.90;99.90
4056;DHT22;2043;52.184;8.690;2023-05-10T00:44:31;14.90;99.90
4056;DHT22;2043;52.184;8.690;2023-05-10T00:46:59;14.90;99.90
4056;DHT22;2043;52.184;8.690;2023-05-10T00:49:26;15.00;99.90
4056;DHT22;2043;52.184;8.690;2023-05-10T00:51:53;15.00;99.90
4056;DHT22;2043;52.184;8.690;2023-05-10T00:54:20;14.90;99.90
4056;DHT22;2043;52.184;8.690;2023-05-10T00:56:47;14.90;99.90
4056;DHT22;2043;52.184;8.690;2023-05-10T00:59:16;14.90;99.90
4056;DHT22;2043;52.184;8.690;2023-05-10T01:01:45;15.00;99.90
4056;DHT22;2043;52.184;8.690;2023-05-10T01:04:13;15.00;99.90
4056;DHT22;2043;52.184;8.690;2023-05-10T01:06:40;14.90;99.90
4056;DHT22;2043;52.184;8.690;2023-05-10T01:09:07;14.80;99.90
4056;DHT22;2043;52.184;8.690;2023-05-10T01:11:35;14.80;99.90
4056;DHT22;2043;52.184;8.690;2023-05-10T01:14:03;14.80;99.90
4056;DHT22;2043;52.184;8.690;2023-05-10T01:16:33;14.80;99.90
4056;DHT22;2043;52.184;8.690;2023-05-10T01:19:05;14.80;99.90
4056;DHT22;2043;52.184;8.690;2023-05-10T01:24:38;14.70;99.90
4056;DHT22;2043;52.184;8.690;2023-05-10T01:33:01;14.70;99.90
4056;DHT22;2043;52.184;8.690;2023-05-10T01:46:38;14.70;99.90
4056;DHT22;2043;52.184;8.690;2023-05-10T01:49:14;14.70;99.90
4056;DHT22;2043;52.184;8.690;2023-05-10T01:51:50;14.70;99.90
4056;DHT22;2043;52.184;8.690;2023-05-10T01:54:20;14.70;99.90
4056;DHT22;2043;52.184;8.690;2023-05-10T01:56:52;14.80;99.90
4056;DHT22;2043;52.184;8.690;2023-05-10T01:59:22;14.90;99.90
4056;DHT22;2043;52.184;8.690;2023-05-10T02:01:56;14.90;99.90
4056;DHT22;2043;52.184;8.690;2023-05-10T02:04:25;14.90;99.90
4056;DHT22;2043;52.184;8.690;2023-05-10T02:06:53;14.90;99.90
4056;DHT22;2043;52.184;8.690;2023-05-10T02:09:22;14.90;99.90
4056;DHT22;2043;52.184;8.690;2023-05-10T02:11:50;14.90;99.90
4056;DHT22;2043;52.184;8.690;2023-05-10T02:14:18;14.90;99.90
4056;DHT22;2043;52.184;8.690;2023-05-10T02:16:46;14.80;99.90
4056;DHT22;2043;52.184;8.690;2023-05-10T02:19:14;14.80;99.90
4056;DHT22;2043;52.184;8.690;2023-05-10T02:21:43;14.80;99.90
4056;DHT22;2043;52.184;8.690;2023-05-10T02:24:11;14.80;99.90
4056;DHT22;2043;52.184;8.690;2023-05-10T02:26:38;14.80;99.90
4056;DHT22;2043;52.184;8.690;2023-05-10T02:29:06;14.80;99.90
4056;DHT22;2043;52.184;8.690;2023-05-10T02:31:34;14.80;99.90
4056;DHT22;2043;52.184;8.690;2023-05-10T02:34:02;14.80;99.90
4056;DHT22;2043;52.184;8.690;2023-05-10T02:39:00;14.90;99.90
4056;DHT22;2043;52.184;8.690;2023-05-10T02:41:28;14.80;99.90
4056;DHT22;2043;52.184;8.690;2023-05-10T02:43:59;14.70;99.90
4056;DHT22;2043;52.184;8.690;2023-05-10T02:46:27;14.60;99.90
4056;DHT22;2043;52.184;8.690;2023-05-10T02:48:54;14.60;99.90
4056;DHT22;2043;52.184;8.690;2023-05-10T02:51:25;14.50;99.90
4056;DHT22;2043;52.184;8.690;2023-05-10T02:53:56;14.50;99.90
4056;DHT22;2043;52.184;8.690;2023-05-10T02:56:27;14.40;99.90
4056;DHT22;2043;52.184;8.690;2023-05-10T02:58:55;14.30;99.90
4056;DHT22;2043;52.184;8.690;2023-05-10T03:01:22;14.30;99.90
4056;DHT22;2043;52.184;8.690;2023-05-10T03:03:49;14.30;99.90
4056;DHT22;2043;52.184;8.690;2023-05-10T03:06:16;14.30;99.90
4056;DHT22;2043;52.184;8.690;2023-05-10T03:08:44;14.30;99.90
4056;DHT22;2043;52.184;8.690;2023-05-10T03:16:40;14.30;99.90
4056;DHT22;2043;52.184;8.690;2023-05-10T03:19:26;14.30;99.90
4056;DHT22;2043;52.184;8.690;2023-05-10T03:21:59;14.30;99.90
4056;DHT22;2043;52.184;8.690;2023-05-10T03:24:27;14.20;99.90
4056;DHT22;2043;52.184;8.690;2023-05-10T03:26:56;14.20;99.90
4056;DHT22;2043;52.184;8.690;2023-05-10T03:29:26;14.20;99.90
4056;DHT22;2043;52.184;8.690;2023-05-10T03:31:53;14.20;99.90
4056;DHT22;2043;52.184;8.690;2023-05-10T03:34:24;14.20;99.90
4056;DHT22;2043;52.184;8.690;2023-05-10T03:36:51;14.20;99.90
4056;DHT22;2043;52.184;8.690;2023-05-10T03:39:18;14.20;99.90
4056;DHT22;2043;52.184;8.690;2023-05-10T03:41:46;14.20;99.90
4056;DHT22;2043;52.184;8.690;2023-05-10T03:44:13;14.10;99.90
4056;DHT22;2043;52.184;8.690;2023-05-10T03:46:40;14.10;99.90
4056;DHT22;2043;52.184;8.690;2023-05-10T03:49:06;14.20;99.90
4056;DHT22;2043;52.184;8.690;2023-05-10T03:51:34;14.10;99.90
4056;DHT22;2043;52.184;8.690;2023-05-10T03:54:00;14.10;99.90
4056;DHT22;2043;52.184;8.690;2023-05-10T03:56:27;14.10;99.90
4056;DHT22;2043;52.184;8.690;2023-05-10T03:58:54;14.10;99.90
4056;DHT22;2043;52.184;8.690;2023-05-10T04:01:20;14.20;99.90
4056;DHT22;2043;52.184;8.690;2023-05-10T04:03:47;14.10;99.90
4056;DHT22;2043;52.184;8.690;2023-05-10T04:06:15;14.10;99.90
4056;DHT22;2043;52.184;8.690;2023-05-10T04:08:42;14.10;99.90
4056;DHT22;2043;52.184;8.690;2023-05-10T04:11:11;14.10;99.90
4056;DHT22;2043;52.184;8.690;2023-05-10T04:13:39;14.20;99.90
4056;DHT22;2043;52.184;8.690;2023-05-10T04:16:06;14.10;99.90
4056;DHT22;2043;52.184;8.690;2023-05-10T04:18:32;14.10;99.90
4056;DHT22;2043;52.184;8.690;2023-05-10T04:20:59;14.00;99.90
4056;DHT22;2043;52.184;8.690;2023-05-10T04:23:27;14.10;99.90
4056;DHT22;2043;52.184;8.690;2023-05-10T04:25:59;14.00;99.90
4056;DHT22;2043;52.184;8.690;2023-05-10T04:28:27;14.00;99.90
4056;DHT22;2043;52.184;8.690;2023-05-10T04:30:59;14.00;99.90
4056;DHT22;2043;52.184;8.690;2023-05-10T04:33:26;13.90;99.90
4056;DHT22;2043;52.184;8.690;2023-05-10T04:35:53;14.00;99.90
4056;DHT22;2043;52.184;8.690;2023-05-10T04:38:20;14.00;99.90
4056;DHT22;2043;52.184;8.690;2023-05-10T04:40:47;14.00;99.90
4056;DHT22;2043;52.184;8.690;2023-05-10T04:43:14;14.00;99.90
4056;DHT22;2043;52.184;8.690;2023-05-10T04:45:40;14.00;99.90
4056;DHT22;2043;52.184;8.690;2023-05-10T04:48:07;14.00;99.90
4056;DHT22;2043;52.184;8.690;2023-05-10T04:50:34;13.90;99.90
4056;DHT22;2043;52.184;8.690;2023-05-10T04:53:01;13.80;99.90
4056;DHT22;2043;52.184;8.690;2023-05-10T04:55:27;13.80;99.90
4056;DHT22;2043;52.184;8.690;2023-05-10T04:57:54;13.70;99.90
4056;DHT22;2043;52.184;8.690;2023-05-10T05:00:23;13.60;99.90
4056;DHT22;2043;52.184;8.690;2023-05-10T05:02:50;13.60;99.90
4056;DHT22;2043;52.184;8.690;2023-05-10T05:05:16;13.50;99.90
4056;DHT22;2043;52.184;8.690;2023-05-10T05:07:43;13.40;99.90
4056;DHT22;2043;52.184;8.690;2023-05-10T05:10:10;13.40;99.90
4056;DHT22;2043;52.184;8.690;2023-05-10T05:12:37;13.40;99.90
4056;DHT22;2043;52.184;8.690;2023-05-10T05:15:04;13.40;99.90
4056;DHT22;2043;52.184;8.690;2023-05-10T05:17:34;13.40;99.90
4056;DHT22;2043;52.184;8.690;2023-05-10T05:22:28;13.30;99.90
4056;DHT22;2043;52.184;8.690;2023-05-10T05:24:55;13.30;99.90
4056;DHT22;2043;52.184;8.690;2023-05-10T05:27:23;13.30;99.90
4056;DHT22;2043;52.184;8.690;2023-05-10T05:29:52;13.30;99.90
4056;DHT22;2043;52.184;8.690;2023-05-10T05:32:19;13.30;99.90
4056;DHT22;2043;52.184;8.690;2023-05-10T05:34:46;13.30;99.90
4056;DHT22;2043;52.184;8.690;2023-05-10T05:37:17;13.40;99.90
4056;DHT22;2043;52.184;8.690;2023-05-10T05:39:45;13.30;99.90
4056;DHT22;2043;52.184;8.690;2023-05-10T05:42:12;13.30;99.90
4056;DHT22;2043;52.184;8.690;2023-05-10T05:44:39;13.40;99.90
4056;DHT22;2043;52.184;8.690;2023-05-10T05:47:06;13.40;99.90
4056;DHT22;2043;52.184;8.690;2023-05-10T05:49:33;13.30;99.90
4056;DHT22;2043;52.184;8.690;2023-05-10T05:52:01;13.30;99.90
4056;DHT22;2043;52.184;8.690;2023-05-10T05:54:28;13.30;99.90
4056;DHT22;2043;52.184;8.690;2023-05-10T05:56:55;13.30;99.90
4056;DHT22;2043;52.184;8.690;2023-05-10T05:59:24;13.30;99.90
4056;DHT22;2043;52.184;8.690;2023-05-10T06:01:51;13.40;99.90
4056;DHT22;2043;52.184;8.690;2023-05-10T06:04:18;13.40;99.90
4056;DHT22;2043;52.184;8.690;2023-05-10T06:06:45;13.40;99.90
4056;DHT22;2043;52.184;8.690;2023-05-10T06:09:12;13.30;99.90
4056;DHT22;2043;52.184;8.690;2023-05-10T06:11:39;13.40;99.90
4056;DHT22;2043;52.184;8.690;2023-05-10T06:14:06;13.40;99.90
4056;DHT22;2043;52.184;8.690;2023-05-10T06:16:34;13.40;99.90
4056;DHT22;2043;52.184;8.690;2023-05-10T06:19:02;13.30;99.90
4056;DHT22;2043;52.184;8.690;2023-05-10T06:21:29;13.30;99.90
4056;DHT22;2043;52.184;8.690;2023-05-10T06:23:56;13.20;99.90
4056;DHT22;2043;52.184;8.690;2023-05-10T06:26:23;13.30;99.90
4056;DHT22;2043;52.184;8.690;2023-05-10T06:28:50;13.30;99.90
4056;DHT22;2043;52.184;8.690;2023-05-10T06:31:17;13.30;99.90
4056;DHT22;2043;52.184;8.690;2023-05-10T06:33:44;13.30;99.90
4056;DHT22;2043;52.184;8.690;2023-05-10T06:36:11;13.40;99.90
4056;DHT22;2043;52.184;8.690;2023-05-10T06:38:37;13.50;99.90
4056;DHT22;2043;52.184;8.690;2023-05-10T06:41:04;13.50;99.90
4056;DHT22;2043;52.184;8.690;2023-05-10T06:43:31;13.50;99.90
4056;DHT22;2043;52.184;8.690;2023-05-10T06:45:59;13.60;99.90
4056;DHT22;2043;52.184;8.690;2023-05-10T06:48:26;13.50;99.90
4056;DHT22;2043;52.184;8.690;2023-05-10T06:50:52;13.50;99.90
4056;DHT22;2043;52.184;8.690;2023-05-10T06:53:19;13.60;99.90
4056;DHT22;2043;52.184;8.690;2023-05-10T06:55:46;13.60;99.90
4056;DHT22;2043;52.184;8.690;2023-05-10T06:58:13;13.60;99.90
4056;DHT22;2043;52.184;8.690;2023-05-10T07:00:39;13.50;99.90
4056;DHT22;2043;52.184;8.690;2023-05-10T07:03:10;13.50;99.90
4056;DHT22;2043;52.184;8.690;2023-05-10T07:05:37;13.50;99.90
4056;DHT22;2043;52.184;8.690;2023-05-10T07:08:04;13.50;99.90
4056;DHT22;2043;52.184;8.690;2023-05-10T07:10:31;13.50;99.90
4056;DHT22;2043;52.184;8.690;2023-05-10T07:12:58;13.50;99.90
4056;DHT22;2043;52.184;8.690;2023-05-10T07:17:51;13.70;99.90
4056;DHT22;2043;52.184;8.690;2023-05-10T07:20:19;13.70;99.90
4056;DHT22;2043;52.184;8.690;2023-05-10T07:22:48;13.80;99.90
4056;DHT22;2043;52.184;8.690;2023-05-10T07:25:15;13.80;99.90
4056;DHT22;2043;52.184;8.690;2023-05-10T07:27:42;14.00;99.90
4056;DHT22;2043;52.184;8.690;2023-05-10T07:30:09;14.00;99.90
4056;DHT22;2043;52.184;8.690;2023-05-10T07:32:35;13.90;99.90
4056;DHT22;2043;52.184;8.690;2023-05-10T07:35:03;13.90;99.90
4056;DHT22;2043;52.184;8.690;2023-05-10T07:37:29;13.90;99.90
4056;DHT22;2043;52.184;8.690;2023-05-10T07:39:56;13.90;99.90
4056;DHT22;2043;52.184;8.690;2023-05-10T07:42:23;13.90;99.90
4056;DHT22;2043;52.184;8.690;2023-05-10T07:44:50;14.10;99.90
4056;DHT22;2043;52.184;8.690;2023-05-10T07:47:17;14.20;99.90
4056;DHT22;2043;52.184;8.690;2023-05-10T07:49:44;14.20;99.90
4056;DHT22;2043;52.184;8.690;2023-05-10T07:52:11;14.20;99.90
4056;DHT22;2043;52.184;8.690;2023-05-10T07:54:38;14.20;99.90
4056;DHT22;2043;52.184;8.690;2023-05-10T07:57:05;14.30;99.90
4056;DHT22;2043;52.184;8.690;2023-05-10T07:59:31;14.30;99.90
4056;DHT22;2043;52.184;8.690;2023-05-10T08:01:59;14.30;99.90
4056;DHT22;2043;52.184;8.690;2023-05-10T08:04:27;14.40;99.90
4056;DHT22;2043;52.184;8.690;2023-05-10T08:06:54;14.50;99.90
4056;DHT22;2043;52.184;8.690;2023-05-10T08:09:20;14.60;99.90
4056;DHT22;2043;52.184;8.690;2023-05-10T08:11:50;14.60;99.90
4056;DHT22;2043;52.184;8.690;2023-05-10T08:14:17;14.50;99.90
4056;DHT22;2043;52.184;8.690;2023-05-10T08:16:44;14.60;99.90
4056;DHT22;2043;52.184;8.690;2023-05-10T08:19:11;14.70;99.90
4056;DHT22;2043;52.184;8.690;2023-05-10T08:21:38;14.70;99.90
4056;DHT22;2043;52.184;8.690;2023-05-10T08:24:07;14.90;99.90
4056;DHT22;2043;52.184;8.690;2023-05-10T08:26:33;14.90;99.90
4056;DHT22;2043;52.184;8.690;2023-05-10T08:29:00;15.00;99.90
4056;DHT22;2043;52.184;8.690;2023-05-10T08:31:27;15.00;99.90
4056;DHT22;2043;52.184;8.690;2023-05-10T08:33:54;14.90;99.90
4056;DHT22;2043;52.184;8.690;2023-05-10T08:36:20;14.90;99.90
4056;DHT22;2043;52.184;8.690;2023-05-10T08:38:50;14.90;99.90
4056;DHT22;2043;52.184;8.690;2023-05-10T08:41:20;14.90;99.90
4056;DHT22;2043;52.184;8.690;2023-05-10T08:43:49;15.00;99.90
4056;DHT22;2043;52.184;8.690;2023-05-10T08:46:18;15.10;99.90
4056;DHT22;2043;52.184;8.690;2023-05-10T08:48:46;15.20;99.90
4056;DHT22;2043;52.184;8.690;2023-05-10T08:51:17;15.50;99.90
4056;DHT22;2043;52.184;8.690;2023-05-10T08:53:45;15.70;99.90
4056;DHT22;2043;52.184;8.690;2023-05-10T08:56:12;15.80;99.90
4056;DHT22;2043;52.184;8.690;2023-05-10T08:58:39;15.90;99.90
4056;DHT22;2043;52.184;8.690;2023-05-10T09:01:06;15.70;99.90
4056;DHT22;2043;52.184;8.690;2023-05-10T09:03:33;15.70;99.90
4056;DHT22;2043;52.184;8.690;2023-05-10T09:06:00;15.70;99.90
4056;DHT22;2043;52.184;8.690;2023-05-10T09:08:27;15.70;99.90
4056;DHT22;2043;52.184;8.690;2023-05-10T09:10:57;15.70;99.90
4056;DHT22;2043;52.184;8.690;2023-05-10T09:13:24;15.80;99.90
4056;DHT22;2043;52.184;8.690;2023-05-10T09:15:53;15.80;99.90
4056;DHT22;2043;52.184;8.690;2023-05-10T09:18:20;15.70;99.90
4056;DHT22;2043;52.184;8.690;2023-05-10T09:20:48;15.70;99.90
4056;DHT22;2043;52.184;8.690;2023-05-10T09:23:14;15.50;99.90
4056;DHT22;2043;52.184;8.690;2023-05-10T09:25:41;15.40;99.90
4056;DHT22;2043;52.184;8.690;2023-05-10T09:28:09;15.60;99.90
4056;DHT22;2043;52.184;8.690;2023-05-10T09:30:36;15.70;99.90
4056;DHT22;2043;52.184;8.690;2023-05-10T09:33:04;16.00;99.90
4056;DHT22;2043;52.184;8.690;2023-05-10T09:35:32;16.20;99.90
4056;DHT22;2043;52.184;8.690;2023-05-10T09:38:03;16.70;99.90
4056;DHT22;2043;52.184;8.690;2023-05-10T09:40:31;17.10;99.90
4056;DHT22;2043;52.184;8.690;2023-05-10T09:43:03;17.20;99.90
4056;DHT22;2043;52.184;8.690;2023-05-10T09:45:31;17.40;99.90
4056;DHT22;2043;52.184;8.690;2023-05-10T09:47:59;17.70;99.90
4056;DHT22;2043;52.184;8.690;2023-05-10T09:50:27;17.70;99.90
4056;DHT22;2043;52.184;8.690;2023-05-10T09:55:24;17.10;99.70
4056;DHT22;2043;52.184;8.690;2023-05-10T09:57:59;17.30;98.20
4056;DHT22;2043;52.184;8.690;2023-05-10T10:00:27;17.50;98.10
4056;DHT22;2043;52.184;8.690;2023-05-10T10:02:58;17.30;98.10
4056;DHT22;2043;52.184;8.690;2023-05-10T10:05:30;17.30;98.80
4056;DHT22;2043;52.184;8.690;2023-05-10T10:08:03;17.30;99.10
4056;DHT22;2043;52.184;8.690;2023-05-10T10:10:32;17.40;99.60
4056;DHT22;2043;52.184;8.690;2023-05-10T10:12:59;17.60;99.90
4056;DHT22;2043;52.184;8.690;2023-05-10T10:15:26;17.60;99.90
4056;DHT22;2043;52.184;8.690;2023-05-10T10:17:53;17.40;99.40
4056;DHT22;2043;52.184;8.690;2023-05-10T10:20:22;17.50;99.90
4056;DHT22;2043;52.184;8.690;2023-05-10T10:22:49;17.20;99.50
4056;DHT22;2043;52.184;8.690;2023-05-10T10:25:17;17.20;99.50
4056;DHT22;2043;52.184;8.690;2023-05-10T10:36:00;17.30;99.90
4056;DHT22;2043;52.184;8.690;2023-05-10T10:52:30;18.30;95.30
4056;DHT22;2043;52.184;8.690;2023-05-10T10:55:11;18.60;95.10
4056;DHT22;2043;52.184;8.690;2023-05-10T11:03:00;18.70;94.70
4056;DHT22;2043;52.184;8.690;2023-05-10T11:05:51;19.00;94.90
4056;DHT22;2043;52.184;8.690;2023-05-10T11:08:27;19.10;92.30
4056;DHT22;2043;52.184;8.690;2023-05-10T11:13:43;18.90;89.80
4056;DHT22;2043;52.184;8.690;2023-05-10T11:18:59;19.30;89.70
4056;DHT22;2043;52.184;8.690;2023-05-10T11:21:29;19.60;87.20
4056;DHT22;2043;52.184;8.690;2023-05-10T11:24:01;19.60;87.70
4056;DHT22;2043;52.184;8.690;2023-05-10T11:26:34;19.80;88.80
4056;DHT22;2043;52.184;8.690;2023-05-10T11:29:01;20.20;87.70
4056;DHT22;2043;52.184;8.690;2023-05-10T11:31:29;20.60;86.70
4056;DHT22;2043;52.184;8.690;2023-05-10T11:33:58;20.50;85.10
4056;DHT22;2043;52.184;8.690;2023-05-10T11:36:26;20.20;84.30
4056;DHT22;2043;52.184;8.690;2023-05-10T11:38:55;20.20;84.50
4056;DHT22;2043;52.184;8.690;2023-05-10T11:41:24;20.50;85.10
4056;DHT22;2043;52.184;8.690;2023-05-10T11:43:52;20.90;85.80
4056;DHT22;2043;52.184;8.690;2023-05-10T11:46:21;20.80;85.80
4056;DHT22;2043;52.184;8.690;2023-05-10T11:48:53;20.70;86.50
4056;DHT22;2043;52.184;8.690;2023-05-10T11:51:21;20.80;87.90
4056;DHT22;2043;52.184;8.690;2023-05-10T11:53:50;21.20;86.40
4056;DHT22;2043;52.184;8.690;2023-05-10T11:56:17;21.00;86.80
4056;DHT22;2043;52.184;8.690;2023-05-10T11:58:44;20.70;86.50
4056;DHT22;2043;52.184;8.690;2023-05-10T12:01:13;20.20;86.90
4056;DHT22;2043;52.184;8.690;2023-05-10T12:03:40;20.20;87.10
4056;DHT22;2043;52.184;8.690;2023-05-10T12:06:07;20.30;87.50
4056;DHT22;2043;52.184;8.690;2023-05-10T12:08:34;20.70;88.00
4056;DHT22;2043;52.184;8.690;2023-05-10T12:11:06;20.60;87.80
4056;DHT22;2043;52.184;8.690;2023-05-10T12:13:41;20.60;88.30
4056;DHT22;2043;52.184;8.690;2023-05-10T12:16:16;21.00;88.30
4056;DHT22;2043;52.184;8.690;2023-05-10T12:18:44;20.80;86.40
4056;DHT22;2043;52.184;8.690;2023-05-10T12:21:12;20.80;83.40
4056;DHT22;2043;52.184;8.690;2023-05-10T12:23:39;20.80;83.00
4056;DHT22;2043;52.184;8.690;2023-05-10T12:26:07;20.80;85.20
4056;DHT22;2043;52.184;8.690;2023-05-10T12:28:35;21.00;83.30
4056;DHT22;2043;52.184;8.690;2023-05-10T12:31:02;21.10;83.90
4056;DHT22;2043;52.184;8.690;2023-05-10T12:33:40;21.60;84.30
4056;DHT22;2043;52.184;8.690;2023-05-10T12:36:12;21.80;82.10
4056;DHT22;2043;52.184;8.690;2023-05-10T12:38:41;22.00;81.20
4056;DHT22;2043;52.184;8.690;2023-05-10T12:41:15;22.10;81.30
4056;DHT22;2043;52.184;8.690;2023-05-10T12:43:42;21.90;81.90
4056;DHT22;2043;52.184;8.690;2023-05-10T12:46:10;21.90;83.30
4056;DHT22;2043;52.184;8.690;2023-05-10T12:48:38;21.60;83.20
4056;DHT22;2043;52.184;8.690;2023-05-10T12:51:06;21.30;83.60
4056;DHT22;2043;52.184;8.690;2023-05-10T12:53:38;21.30;83.70
4056;DHT22;2043;52.184;8.690;2023-05-10T12:56:09;21.10;84.40
4056;DHT22;2043;52.184;8.690;2023-05-10T12:58:36;20.60;85.10
4056;DHT22;2043;52.184;8.690;2023-05-10T13:01:04;20.60;85.20
4056;DHT22;2043;52.184;8.690;2023-05-10T13:03:31;20.50;84.40
4056;DHT22;2043;52.184;8.690;2023-05-10T13:05:58;20.40;85.80
4056;DHT22;2043;52.184;8.690;2023-05-10T13:08:25;20.60;85.50
4056;DHT22;2043;52.184;8.690;2023-05-10T13:10:52;20.60;85.80
4056;DHT22;2043;52.184;8.690;2023-05-10T13:13:19;20.90;85.70
4056;DHT22;2043;52.184;8.690;2023-05-10T13:15:46;21.20;85.10
4056;DHT22;2043;52.184;8.690;2023-05-10T13:18:13;21.30;83.00
4056;DHT22;2043;52.184;8.690;2023-05-10T13:20:40;21.40;82.30
4056;DHT22;2043;52.184;8.690;2023-05-10T13:23:07;21.20;84.20
4056;DHT22;2043;52.184;8.690;2023-05-10T13:25:33;21.20;83.70
4056;DHT22;2043;52.184;8.690;2023-05-10T13:28:01;21.10;84.00
4056;DHT22;2043;52.184;8.690;2023-05-10T13:30:27;21.00;83.60
4056;DHT22;2043;52.184;8.690;2023-05-10T13:32:55;20.60;85.30
4056;DHT22;2043;52.184;8.690;2023-05-10T13:35:22;20.60;85.10
4056;DHT22;2043;52.184;8.690;2023-05-10T13:37:49;20.50;84.50
4056;DHT22;2043;52.184;8.690;2023-05-10T13:40:16;20.40;85.50
4056;DHT22;2043;52.184;8.690;2023-05-10T13:42:43;20.20;86.20
4056;DHT22;2043;52.184;8.690;2023-05-10T13:45:10;20.00;86.90
4056;DHT22;2043;52.184;8.690;2023-05-10T13:47:38;19.80;88.50
4056;DHT22;2043;52.184;8.690;2023-05-10T13:50:06;19.70;88.80
4056;DHT22;2043;52.184;8.690;2023-05-10T13:52:33;19.70;88.50
4056;DHT22;2043;52.184;8.690;2023-05-10T13:55:00;19.60;87.10
4056;DHT22;2043;52.184;8.690;2023-05-10T13:57:27;19.50;87.60
4056;DHT22;2043;52.184;8.690;2023-05-10T13:59:55;19.40;88.60
4056;DHT22;2043;52.184;8.690;2023-05-10T14:02:23;19.50;88.10
4056;DHT22;2043;52.184;8.690;2023-05-10T14:04:51;19.40;87.90
4056;DHT22;2043;52.184;8.690;2023-05-10T14:07:18;19.20;88.60
4056;DHT22;2043;52.184;8.690;2023-05-10T14:09:45;19.10;90.10
4056;DHT22;2043;52.184;8.690;2023-05-10T14:12:12;18.70;91.00
4056;DHT22;2043;52.184;8.690;2023-05-10T14:14:41;18.60;92.60
4056;DHT22;2043;52.184;8.690;2023-05-10T14:17:07;18.50;95.30
4056;DHT22;2043;52.184;8.690;2023-05-10T14:19:37;18.50;96.00
4056;DHT22;2043;52.184;8.690;2023-05-10T14:22:05;18.40;98.30
4056;DHT22;2043;52.184;8.690;2023-05-10T14:24:32;18.20;98.40
4056;DHT22;2043;52.184;8.690;2023-05-10T14:29:26;17.30;99.90
4056;DHT22;2043;52.184;8.690;2023-05-10T14:31:53;17.10;99.90
4056;DHT22;2043;52.184;8.690;2023-05-10T14:34:20;17.10;99.90
4056;DHT22;2043;52.184;8.690;2023-05-10T14:36:47;16.90;99.90
4056;DHT22;2043;52.184;8.690;2023-05-10T14:39:14;16.90;99.90
4056;DHT22;2043;52.184;8.690;2023-05-10T14:41:41;16.90;99.90
4056;DHT22;2043;52.184;8.690;2023-05-10T14:44:10;17.20;99.90
4056;DHT22;2043;52.184;8.690;2023-05-10T14:46:37;17.30;99.90
4056;DHT22;2043;52.184;8.690;2023-05-10T14:49:04;17.70;99.90
4056;DHT22;2043;52.184;8.690;2023-05-10T14:51:30;17.80;99.90
4056;DHT22;2043;52.184;8.690;2023-05-10T14:53:58;17.70;99.90
4056;DHT22;2043;52.184;8.690;2023-05-10T14:56:25;17.60;99.90
4056;DHT22;2043;52.184;8.690;2023-05-10T14:58:54;17.70;99.90
4056;DHT22;2043;52.184;8.690;2023-05-10T15:01:22;17.60;99.90
4056;DHT22;2043;52.184;8.690;2023-05-10T15:03:49;17.60;99.90
4056;DHT22;2043;52.184;8.690;2023-05-10T15:06:23;17.40;99.90
4056;DHT22;2043;52.184;8.690;2023-05-10T15:08:50;17.30;99.90
4056;DHT22;2043;52.184;8.690;2023-05-10T15:11:18;17.00;99.90
4056;DHT22;2043;52.184;8.690;2023-05-10T15:13:45;17.00;99.90
4056;DHT22;2043;52.184;8.690;2023-05-10T15:16:12;17.10;99.90
4056;DHT22;2043;52.184;8.690;2023-05-10T15:18:38;17.10;99.90
4056;DHT22;2043;52.184;8.690;2023-05-10T15:21:05;17.10;99.90
4056;DHT22;2043;52.184;8.690;2023-05-10T15:23:32;17.10;99.90
4056;DHT22;2043;52.184;8.690;2023-05-10T15:26:00;17.30;99.90
4056;DHT22;2043;52.184;8.690;2023-05-10T15:28:27;17.30;99.90
4056;DHT22;2043;52.184;8.690;2023-05-10T15:30:54;17.20;99.90
4056;DHT22;2043;52.184;8.690;2023-05-10T15:33:21;17.10;99.90
4056;DHT22;2043;52.184;8.690;2023-05-10T15:35:48;17.10;99.90
4056;DHT22;2043;52.184;8.690;2023-05-10T15:38:15;17.20;99.90
4056;DHT22;2043;52.184;8.690;2023-05-10T15:40:42;17.10;99.90
4056;DHT22;2043;52.184;8.690;2023-05-10T15:43:08;17.10;99.90
4056;DHT22;2043;52.184;8.690;2023-05-10T15:45:35;17.10;99.90
4056;DHT22;2043;52.184;8.690;2023-05-10T15:48:03;17.30;99.90
4056;DHT22;2043;52.184;8.690;2023-05-10T15:50:30;17.30;99.90
4056;DHT22;2043;52.184;8.690;2023-05-10T15:52:57;17.10;99.90
4056;DHT22;2043;52.184;8.690;2023-05-10T15:55:24;17.10;99.90
4056;DHT22;2043;52.184;8.690;2023-05-10T15:57:51;17.10;99.90
4056;DHT22;2043;52.184;8.690;2023-05-10T16:00:18;17.20;99.90
4056;DHT22;2043;52.184;8.690;2023-05-10T16:02:45;17.30;99.90
4056;DHT22;2043;52.184;8.690;2023-05-10T16:05:12;17.30;99.90
4056;DHT22;2043;52.184;8.690;2023-05-10T16:07:39;17.30;99.90
4056;DHT22;2043;52.184;8.690;2023-05-10T16:10:09;17.20;99.90
4056;DHT22;2043;52.184;8.690;2023-05-10T16:12:36;17.20;99.90
4056;DHT22;2043;52.184;8.690;2023-05-10T16:15:04;17.20;99.90
4056;DHT22;2043;52.184;8.690;2023-05-10T16:17:30;17.10;99.90
4056;DHT22;2043;52.184;8.690;2023-05-10T16:19:57;17.10;99.90
4056;DHT22;2043;52.184;8.690;2023-05-10T16:22:25;17.10;99.90
4056;DHT22;2043;52.184;8.690;2023-05-10T16:24:58;17.20;99.90
4056;DHT22;2043;52.184;8.690;2023-05-10T16:27:25;17.20;99.90
4056;DHT22;2043;52.184;8.690;2023-05-10T16:29:54;17.20;99.90
4056;DHT22;2043;52.184;8.690;2023-05-10T16:32:21;17.20;99.90
4056;DHT22;2043;52.184;8.690;2023-05-10T16:34:48;17.30;99.90
4056;DHT22;2043;52.184;8.690;2023-05-10T16:37:15;17.20;99.90
4056;DHT22;2043;52.184;8.690;2023-05-10T16:39:43;17.10;99.90
4056;DHT22;2043;52.184;8.690;2023-05-10T16:42:09;17.00;99.90
4056;DHT22;2043;52.184;8.690;2023-05-10T16:44:36;17.00;99.90
4056;DHT22;2043;52.184;8.690;2023-05-10T16:47:03;17.00;99.90
4056;DHT22;2043;52.184;8.690;2023-05-10T16:49:30;17.00;99.90
4056;DHT22;2043;52.184;8.690;2023-05-10T16:51:57;17.00;99.90
4056;DHT22;2043;52.184;8.690;2023-05-10T16:54:23;16.90;99.90
4056;DHT22;2043;52.184;8.690;2023-05-10T16:56:50;16.90;99.90
4056;DHT22;2043;52.184;8.690;2023-05-10T16:59:17;16.60;99.90
4056;DHT22;2043;52.184;8.690;2023-05-10T17:01:44;16.60;99.90
4056;DHT22;2043;52.184;8.690;2023-05-10T17:04:12;16.70;99.90
4056;DHT22;2043;52.184;8.690;2023-05-10T17:06:39;16.70;99.90
4056;DHT22;2043;52.184;8.690;2023-05-10T17:09:07;16.60;99.90
4056;DHT22;2043;52.184;8.690;2023-05-10T17:11:33;16.60;99.90
4056;DHT22;2043;52.184;8.690;2023-05-10T17:14:01;16.60;99.90
4056;DHT22;2043;52.184;8.690;2023-05-10T17:16:28;16.50;99.90